createdAt,value
2023-03-15T00:01:37.505Z,0.50
2023-03-15T00:06:41.323Z,0.65
2023-03-15T00:11:45.011Z,0.80
2023-03-15T00:16:49.084Z,0.52
2023-03-15T00:21:52.738Z,0.52
2023-03-15T00:26:55.831Z,0.63
2023-03-15T00:31:59.798Z,0.70
2023-03-15T00:37:02.867Z,0.55
2023-03-15T00:42:05.972Z,0.80
2023-03-15T00:47:10.670Z,0.40
2023-03-15T00:52:14.135Z,0.40
2023-03-15T00:57:18.235Z,0.68
2023-03-15T01:02:22.674Z,0.75
2023-03-15T01:07:25.839Z,0.57
2023-03-15T01:12:29.932Z,0.50
2023-03-15T01:17:33.552Z,0.77
2023-03-15T01:22:38.223Z,0.65
2023-03-15T01:27:41.257Z,0.50
2023-03-15T01:32:44.954Z,0.47
2023-03-15T01:37:53.308Z,0.50
2023-03-15T01:43:05.674Z,0.63
2023-03-15T01:48:08.890Z,0.90
2023-03-15T01:53:13.412Z,0.70
2023-03-15T01:58:17.196Z,0.60
2023-03-15T02:03:34.610Z,1.15
2023-03-15T02:08:44.091Z,1.88
2023-03-15T02:13:49.978Z,1.30
2023-03-15T02:18:53.832Z,1.08
2023-03-15T02:24:18.516Z,1.20
2023-03-15T02:29:24.384Z,0.98
2023-03-15T02:34:27.430Z,0.80
2023-03-15T02:39:30.706Z,1.30
2023-03-15T02:44:36.915Z,1.00
2023-03-15T02:49:42.841Z,1.27
2023-03-15T02:54:46.867Z,0.95
2023-03-15T02:59:55.236Z,0.88
2023-03-15T03:04:58.329Z,1.60
2023-03-15T03:10:01.572Z,0.85
2023-03-15T03:15:12.463Z,0.98
2023-03-15T03:20:17.099Z,1.70
2023-03-15T03:30:31.508Z,0.43
2023-03-15T03:35:34.752Z,0.38
2023-03-15T03:40:41.580Z,0.30
2023-03-15T03:45:44.737Z,0.80
2023-03-15T03:50:48.089Z,0.73
2023-03-15T03:55:51.528Z,1.30
2023-03-15T04:00:58.111Z,0.77
2023-03-15T04:11:17.778Z,0.60
2023-03-15T04:16:27.018Z,0.88
2023-03-15T04:21:37.415Z,1.00
2023-03-15T04:27:03.114Z,1.13
2023-03-15T04:32:18.373Z,0.90
2023-03-15T04:37:38.661Z,1.13
2023-03-15T04:43:06.184Z,0.80
2023-03-15T04:48:25.381Z,0.70
2023-03-15T04:53:43.460Z,1.35
2023-03-15T04:58:46.603Z,1.15
2023-03-15T05:04:19.014Z,0.55
2023-03-15T05:09:42.460Z,0.98
2023-03-15T05:14:54.509Z,1.15
2023-03-15T05:20:29.837Z,0.47
2023-03-15T05:25:56.920Z,1.55
2023-03-15T05:31:05.848Z,1.33
2023-03-15T05:36:27.922Z,1.30
2023-03-15T05:41:52.028Z,1.20
2023-03-15T05:47:16.196Z,1.17
2023-03-15T05:52:45.096Z,1.30
2023-03-15T05:57:56.871Z,1.17
2023-03-15T06:03:20.125Z,1.38
2023-03-15T06:08:40.004Z,1.27
2023-03-15T06:13:43.918Z,0.95
2023-03-15T06:18:54.753Z,0.85
2023-03-15T06:23:58.793Z,0.90
2023-03-15T06:29:02.511Z,1.20
2023-03-15T06:34:06.483Z,0.98
2023-03-15T06:39:12.386Z,1.05
2023-03-15T06:44:15.677Z,1.10
2023-03-15T06:49:19.258Z,1.70
2023-03-15T06:54:22.426Z,1.30
2023-03-15T06:59:26.081Z,1.33
2023-03-15T07:04:29.778Z,1.75
2023-03-15T07:09:32.942Z,1.20
2023-03-15T07:14:36.726Z,1.60
2023-03-15T07:19:50.123Z,0.90
2023-03-15T07:24:54.676Z,1.75
2023-03-15T07:29:57.844Z,1.30
2023-03-15T07:35:01.418Z,1.20
2023-03-15T07:40:07.200Z,1.05
2023-03-15T07:45:11.224Z,1.10
2023-03-15T07:50:17.263Z,1.98
2023-03-15T07:55:20.524Z,1.50
2023-03-15T08:00:24.903Z,1.50
2023-03-15T08:05:29.190Z,0.70
2023-03-15T08:10:33.233Z,1.30
2023-03-15T08:15:36.491Z,1.80
2023-03-15T08:20:39.532Z,1.00
2023-03-15T08:25:46.176Z,0.80
2023-03-15T08:30:49.403Z,1.40
2023-03-15T08:35:54.808Z,0.98
2023-03-15T08:40:58.900Z,1.03
2023-03-15T08:46:02.319Z,1.35
2023-03-15T08:51:06.886Z,1.02
2023-03-15T08:56:10.163Z,1.23
2023-03-15T09:01:14.086Z,2.08
2023-03-15T09:06:19.237Z,1.75
2023-03-15T09:11:23.371Z,1.48
2023-03-15T09:16:26.994Z,0.57
2023-03-15T09:21:32.036Z,0.50
2023-03-15T09:26:35.168Z,1.15
2023-03-15T09:31:38.310Z,1.55
2023-03-15T09:36:41.580Z,2.03
2023-03-15T09:41:47.911Z,1.88
2023-03-15T09:47:02.065Z,1.55
2023-03-15T09:52:33.770Z,1.65
2023-03-15T09:57:59.825Z,2.10
2023-03-15T10:03:10.106Z,1.70
2023-03-15T10:08:17.689Z,2.10
2023-03-15T10:13:48.234Z,1.88
2023-03-15T10:19:07.277Z,2.30
2023-03-15T10:24:37.965Z,2.13
2023-03-15T10:29:41.240Z,2.13
2023-03-15T10:34:56.025Z,1.95
2023-03-15T10:39:59.958Z,1.60
2023-03-15T10:45:24.406Z,2.17
2023-03-15T10:50:29.375Z,1.77
2023-03-15T10:55:45.296Z,1.93
2023-03-15T11:00:51.698Z,2.63
2023-03-15T11:05:57.734Z,2.15
2023-03-15T11:11:01.209Z,1.65
2023-03-15T11:16:21.053Z,2.00
2023-03-15T11:21:43.166Z,1.52
2023-03-15T11:26:52.039Z,1.63
2023-03-15T11:31:57.454Z,1.35
2023-03-15T11:37:08.928Z,1.60
2023-03-15T11:42:23.553Z,1.58
2023-03-15T11:47:59.338Z,2.00
2023-03-15T11:53:07.148Z,1.77
2023-03-15T11:58:35.890Z,1.80
2023-03-15T12:03:45.625Z,1.75
2023-03-15T12:08:52.014Z,2.63
2023-03-15T12:19:15.022Z,2.00
2023-03-15T12:24:29.218Z,1.98
2023-03-15T12:29:35.112Z,1.85
2023-03-15T12:40:19.267Z,2.17
2023-03-15T12:45:28.340Z,1.83
2023-03-15T12:50:46.364Z,2.15
2023-03-15T12:55:54.081Z,1.30
2023-03-15T13:01:03.748Z,1.10
2023-03-15T13:06:28.095Z,1.35
2023-03-15T13:11:39.613Z,1.30
2023-03-15T13:16:54.900Z,1.67
2023-03-15T13:22:18.324Z,1.25
2023-03-15T13:27:36.900Z,1.60
2023-03-15T13:32:40.236Z,1.27
2023-03-15T13:37:45.399Z,2.00
2023-03-15T13:42:48.584Z,1.87
2023-03-15T13:47:51.644Z,1.35
2023-03-15T13:52:56.791Z,0.90
2023-03-15T13:58:05.291Z,1.03
2023-03-15T14:03:17.727Z,1.83
2023-03-15T14:08:27.793Z,1.85
2023-03-15T14:13:34.500Z,1.85
2023-03-15T14:18:41.877Z,2.05
2023-03-15T14:23:48.712Z,1.50
2023-03-15T14:29:02.346Z,1.58
2023-03-15T14:34:10.474Z,2.10
2023-03-15T14:39:43.149Z,2.00
2023-03-15T14:44:46.702Z,1.60
2023-03-15T14:49:50.188Z,1.48
2023-03-15T14:54:53.924Z,1.90
2023-03-15T14:59:57.008Z,1.77
2023-03-15T15:05:04.372Z,1.70
2023-03-15T15:10:07.781Z,1.85
2023-03-15T15:15:22.434Z,1.48
2023-03-15T15:20:25.848Z,1.20
2023-03-15T15:25:31.039Z,1.30
2023-03-15T15:30:34.822Z,2.70
2023-03-15T15:35:38.790Z,2.40
2023-03-15T15:40:42.876Z,2.22
2023-03-15T15:46:12.731Z,2.03
2023-03-15T15:51:22.075Z,1.58
2023-03-15T15:56:32.277Z,2.20
2023-03-15T16:01:36.542Z,1.67
2023-03-15T16:11:46.261Z,1.80
2023-03-15T16:16:50.429Z,2.05
2023-03-15T16:21:54.780Z,1.67
2023-03-15T16:27:08.929Z,1.10
2023-03-15T16:32:32.851Z,2.03
2023-03-15T16:37:40.577Z,1.90
2023-03-15T16:42:44.654Z,1.27
2023-03-15T16:47:48.862Z,1.48
2023-03-15T16:52:56.779Z,2.00
2023-03-15T16:58:17.960Z,1.83
2023-03-15T17:03:21.828Z,1.65
2023-03-15T17:08:25.650Z,1.23
2023-03-15T17:13:30.546Z,1.52
2023-03-15T17:18:35.055Z,1.30
2023-03-15T17:23:38.104Z,1.30
2023-03-15T17:28:43.692Z,1.95
2023-03-15T17:33:47.220Z,1.00
2023-03-15T17:38:50.686Z,1.40
2023-03-15T17:43:54.579Z,2.17
2023-03-15T17:48:58.609Z,2.00
2023-03-15T17:54:02.749Z,1.52
2023-03-15T17:59:06.167Z,1.20
2023-03-15T18:04:13.298Z,1.10
2023-03-15T18:14:19.569Z,1.63
2023-03-15T18:19:23.818Z,1.55
2023-03-15T18:24:28.036Z,1.95
2023-03-15T18:29:32.082Z,2.13
2023-03-15T18:34:42.737Z,1.55
2023-03-15T18:39:51.400Z,1.48
2023-03-15T18:44:55.317Z,1.52
2023-03-15T18:50:09.821Z,0.60
2023-03-15T18:55:15.481Z,1.98
2023-03-15T19:00:27.172Z,1.30
2023-03-15T19:05:32.554Z,0.95
2023-03-15T19:10:36.170Z,1.48
2023-03-15T19:15:40.216Z,1.20
2023-03-15T19:20:43.444Z,1.70
2023-03-15T19:25:48.097Z,1.30
2023-03-15T19:30:51.531Z,1.20
2023-03-15T19:35:55.295Z,1.33
2023-03-15T19:41:03.885Z,1.00
2023-03-15T19:46:08.414Z,1.30
2023-03-15T19:51:11.618Z,0.98
2023-03-15T19:56:15.450Z,0.82
2023-03-15T20:01:18.810Z,1.00
2023-03-15T20:06:22.421Z,1.00
2023-03-15T20:11:26.485Z,1.30
2023-03-15T20:16:29.778Z,1.38
2023-03-15T20:21:34.012Z,0.93
2023-03-15T20:26:37.323Z,1.30
2023-03-15T20:31:41.477Z,1.08
2023-03-15T20:36:45.930Z,1.00
2023-03-15T20:41:50.578Z,1.52
2023-03-15T20:46:57.106Z,2.05
2023-03-15T20:52:01.813Z,1.37
2023-03-15T20:57:07.214Z,2.22
2023-03-15T21:02:15.148Z,1.73
2023-03-15T21:07:18.745Z,1.30
2023-03-15T21:12:23.231Z,1.17
2023-03-15T21:17:27.394Z,1.95
2023-03-15T21:22:31.335Z,1.30
2023-03-15T21:27:34.740Z,1.90
2023-03-15T21:32:38.790Z,2.78
2023-03-15T21:37:42.618Z,1.67
2023-03-15T21:42:47.997Z,2.08
2023-03-15T21:47:52.944Z,1.52
2023-03-15T21:52:56.050Z,1.88
2023-03-15T21:58:02.182Z,1.67
2023-03-15T22:03:05.985Z,1.50
2023-03-15T22:08:09.550Z,1.45
2023-03-15T22:13:13.058Z,2.22
2023-03-15T22:18:16.923Z,1.77
2023-03-15T22:23:20.229Z,1.58
2023-03-15T22:28:25.462Z,1.67
2023-03-15T22:33:28.534Z,2.05
2023-03-15T22:38:37.962Z,2.22
2023-03-15T22:43:41.623Z,2.05
2023-03-15T22:48:44.972Z,2.45
2023-03-15T22:53:49.058Z,1.55
2023-03-15T22:58:55.720Z,1.92
2023-03-15T23:03:59.277Z,1.47
2023-03-15T23:09:05.490Z,1.75
2023-03-15T23:14:09.868Z,3.45
2023-03-15T23:19:13.732Z,3.20
2023-03-15T23:24:19.224Z,1.75
2023-03-15T23:29:24.018Z,0.90
2023-03-15T23:34:28.519Z,1.35
2023-03-15T23:39:32.211Z,1.65
2023-03-15T23:44:35.575Z,1.98
2023-03-15T23:49:38.799Z,2.28
2023-03-15T23:54:42.831Z,1.73
2023-03-15T23:59:46.416Z,1.27
